createdAt,value
2018-06-04T00:00:12.684Z,100.00
2018-06-04T00:01:15.492Z,100.00
2018-06-04T00:02:18.327Z,100.00
2018-06-04T00:03:21.126Z,100.00
2018-06-04T00:04:23.952Z,100.00
2018-06-04T00:05:27.060Z,100.00
2018-06-04T00:06:29.895Z,100.00
2018-06-04T00:07:32.700Z,100.00
2018-06-04T00:08:35.503Z,100.00
2018-06-04T00:09:38.329Z,100.00
2018-06-04T00:10:41.119Z,100.00
2018-06-04T00:11:44.231Z,100.00
2018-06-04T00:12:47.062Z,100.00
2018-06-04T00:13:49.872Z,100.00
2018-06-04T00:14:52.666Z,100.00
2018-06-04T00:15:55.576Z,100.00
2018-06-04T00:16:58.385Z,100.00
2018-06-04T00:18:01.495Z,100.00
2018-06-04T00:19:04.309Z,100.00
2018-06-04T00:20:07.108Z,100.00
2018-06-04T00:21:09.923Z,100.00
2018-06-04T00:22:12.722Z,100.00
2018-06-04T00:23:15.526Z,100.00
2018-06-04T00:24:18.720Z,100.00
2018-06-04T00:25:21.533Z,100.00
2018-06-04T00:26:24.343Z,100.00
2018-06-04T00:27:27.195Z,100.00
2018-06-04T00:28:30.062Z,100.00
2018-06-04T00:29:32.887Z,100.00
2018-06-04T00:30:35.989Z,100.00
2018-06-04T00:31:38.909Z,100.00
2018-06-04T00:32:41.824Z,100.00
2018-06-04T00:33:44.672Z,100.00
2018-06-04T00:34:47.455Z,100.00
2018-06-04T00:35:50.249Z,100.00
2018-06-04T00:36:53.347Z,100.00
2018-06-04T00:37:56.158Z,100.00
2018-06-04T00:38:59.000Z,100.00
2018-06-04T00:40:01.848Z,100.00
2018-06-04T00:41:04.658Z,100.00
2018-06-04T00:42:07.549Z,100.00
2018-06-04T00:43:10.666Z,100.00
2018-06-04T00:44:13.505Z,100.00
2018-06-04T00:45:16.301Z,100.00
2018-06-04T00:46:19.114Z,100.00
2018-06-04T00:47:21.950Z,100.00
2018-06-04T00:48:24.738Z,100.00
2018-06-04T00:49:27.815Z,100.00
2018-06-04T00:50:30.623Z,100.00
2018-06-04T00:51:33.445Z,100.00
2018-06-04T00:52:36.226Z,100.00
2018-06-04T00:53:39.024Z,100.00
2018-06-04T00:54:41.850Z,100.00
2018-06-04T00:55:44.971Z,100.00
2018-06-04T00:56:47.788Z,100.00
2018-06-04T00:57:50.609Z,100.00
2018-06-04T00:58:53.423Z,100.00
2018-06-04T00:59:56.265Z,100.00
2018-06-04T01:00:59.048Z,100.00
2018-06-04T01:02:02.219Z,100.00
2018-06-04T01:03:05.051Z,100.00
2018-06-04T01:04:07.861Z,100.00
2018-06-04T01:05:10.703Z,100.00
2018-06-04T01:06:13.510Z,100.00
2018-06-04T01:07:16.334Z,100.00
2018-06-04T01:08:19.475Z,100.00
2018-06-04T01:09:22.278Z,100.00
2018-06-04T01:10:25.127Z,100.00
2018-06-04T01:11:27.954Z,100.00
2018-06-04T01:12:30.728Z,100.00
2018-06-04T01:13:33.725Z,100.00
2018-06-04T01:14:36.996Z,100.00
2018-06-04T01:15:39.798Z,100.00
2018-06-04T01:16:42.632Z,100.00
2018-06-04T01:17:45.418Z,100.00
2018-06-04T01:18:48.230Z,100.00
2018-06-04T01:19:51.077Z,100.00
2018-06-04T01:20:54.181Z,100.00
2018-06-04T01:21:57.020Z,100.00
2018-06-04T01:22:59.803Z,100.00
2018-06-04T01:24:02.625Z,100.00
2018-06-04T01:25:05.429Z,100.00
2018-06-04T01:26:08.262Z,100.00
2018-06-04T01:27:11.381Z,100.00
2018-06-04T01:28:14.143Z,100.00
2018-06-04T01:29:16.958Z,100.00
2018-06-04T01:30:19.767Z,100.00
2018-06-04T01:31:22.567Z,100.00
2018-06-04T01:32:25.350Z,100.00
2018-06-04T01:33:28.440Z,100.00
2018-06-04T01:34:31.201Z,100.00
2018-06-04T01:35:33.992Z,100.00
2018-06-04T01:36:36.752Z,100.00
2018-06-04T01:37:39.813Z,100.00
2018-06-04T01:38:42.672Z,100.00
2018-06-04T01:39:45.921Z,100.00
2018-06-04T01:40:48.711Z,100.00
2018-06-04T01:41:51.751Z,100.00
2018-06-04T01:42:54.573Z,100.00
2018-06-04T01:43:57.486Z,100.00
2018-06-04T01:45:00.279Z,100.00
2018-06-04T01:46:03.590Z,100.00
2018-06-04T01:47:06.375Z,100.00
2018-06-04T01:48:09.184Z,100.00
2018-06-04T01:49:12.020Z,100.00
2018-06-04T01:50:14.814Z,100.00
2018-06-04T01:51:17.587Z,100.00
2018-06-04T01:52:20.689Z,100.00
2018-06-04T01:53:23.506Z,100.00
2018-06-04T01:54:26.288Z,100.00
2018-06-04T01:55:29.187Z,100.00
2018-06-04T01:56:31.954Z,100.00
2018-06-04T01:57:34.765Z,100.00
2018-06-04T01:58:37.863Z,100.00
2018-06-04T01:59:40.658Z,100.00
2018-06-04T02:00:43.447Z,100.00
2018-06-04T02:01:46.266Z,100.00
2018-06-04T02:02:49.072Z,100.00
2018-06-04T02:03:51.911Z,100.00
2018-06-04T02:04:55.048Z,100.00
2018-06-04T02:05:57.857Z,100.00
2018-06-04T02:07:00.661Z,100.00
2018-06-04T02:08:03.477Z,100.00
2018-06-04T02:09:06.300Z,100.00
2018-06-04T02:10:09.127Z,100.00
2018-06-04T02:11:12.228Z,100.00
2018-06-04T02:12:15.037Z,100.00
2018-06-04T02:13:17.832Z,100.00
2018-06-04T02:14:20.616Z,100.00
2018-06-04T02:15:23.416Z,100.00
2018-06-04T02:16:26.213Z,100.00
2018-06-04T02:17:29.358Z,100.00
2018-06-04T02:18:32.135Z,100.00
2018-06-04T02:19:34.924Z,100.00
2018-06-04T02:20:37.739Z,100.00
2018-06-04T02:21:40.502Z,100.00
2018-06-04T02:22:43.355Z,100.00
2018-06-04T02:23:46.457Z,100.00
2018-06-04T02:24:49.244Z,100.00
2018-06-04T02:25:52.020Z,100.00
2018-06-04T02:26:54.810Z,100.00
2018-06-04T02:27:57.628Z,100.00
2018-06-04T02:29:00.491Z,100.00
2018-06-04T02:30:03.602Z,100.00
2018-06-04T02:31:06.385Z,100.00
2018-06-04T02:32:09.304Z,100.00
2018-06-04T02:33:12.113Z,100.00
2018-06-04T02:34:14.904Z,100.00
2018-06-04T02:35:17.702Z,100.00
2018-06-04T02:36:20.853Z,100.00
2018-06-04T02:37:23.652Z,100.00
2018-06-04T02:38:26.455Z,100.00
2018-06-04T02:39:29.263Z,100.00
2018-06-04T02:40:32.062Z,100.00
2018-06-04T02:41:34.848Z,100.00
2018-06-04T02:42:38.267Z,100.00
2018-06-04T02:43:41.120Z,100.00
2018-06-04T02:44:44.109Z,100.00
2018-06-04T02:45:47.050Z,100.00
2018-06-04T02:46:49.877Z,100.00
2018-06-04T02:47:52.702Z,100.00
2018-06-04T02:48:55.806Z,100.00
2018-06-04T02:49:58.641Z,100.00
2018-06-04T02:51:01.451Z,100.00
2018-06-04T02:52:04.359Z,100.00
2018-06-04T02:53:07.144Z,100.00
2018-06-04T02:54:10.001Z,100.00
2018-06-04T02:55:13.575Z,100.00
2018-06-04T02:56:16.392Z,100.00
2018-06-04T02:57:19.233Z,100.00
2018-06-04T02:58:22.249Z,100.00
2018-06-04T02:59:25.335Z,100.00
2018-06-04T03:00:28.312Z,100.00
2018-06-04T03:01:31.652Z,100.00
2018-06-04T03:02:34.462Z,100.00
2018-06-04T03:03:37.444Z,100.00
2018-06-04T03:04:40.353Z,100.00
2018-06-04T03:05:43.181Z,100.00
2018-06-04T03:06:45.991Z,100.00
2018-06-04T03:07:49.130Z,100.00
2018-06-04T03:08:51.985Z,100.00
2018-06-04T03:09:54.759Z,100.00
2018-06-04T03:10:58.317Z,100.00
2018-06-04T03:12:01.170Z,100.00
2018-06-04T03:13:03.964Z,100.00
2018-06-04T03:14:07.047Z,100.00
2018-06-04T03:15:09.832Z,100.00
2018-06-04T03:16:12.722Z,100.00
2018-06-04T03:17:15.524Z,100.00
2018-06-04T03:18:18.322Z,100.00
2018-06-04T03:19:21.109Z,100.00
2018-06-04T03:20:24.184Z,100.00
2018-06-04T03:21:27.015Z,100.00
2018-06-04T03:22:29.823Z,100.00
2018-06-04T03:23:32.631Z,100.00
2018-06-04T03:24:35.413Z,100.00
2018-06-04T03:25:38.192Z,100.00
2018-06-04T03:26:41.329Z,100.00
2018-06-04T03:27:44.178Z,100.00
2018-06-04T03:28:46.959Z,100.00
2018-06-04T03:29:49.726Z,100.00
2018-06-04T03:30:52.516Z,100.00
2018-06-04T03:31:55.314Z,100.00
2018-06-04T03:32:58.432Z,100.00
2018-06-04T03:34:01.233Z,100.00
2018-06-04T03:35:04.006Z,100.00
2018-06-04T03:36:06.808Z,100.00
2018-06-04T03:37:09.618Z,100.00
2018-06-04T03:38:12.459Z,100.00
2018-06-04T03:39:15.569Z,100.00
2018-06-04T03:40:18.431Z,100.00
2018-06-04T03:41:21.199Z,100.00
2018-06-04T03:42:23.987Z,100.00
2018-06-04T03:43:26.790Z,100.00
2018-06-04T03:44:29.628Z,100.00
2018-06-04T03:45:32.704Z,100.00
2018-06-04T03:46:35.521Z,100.00
2018-06-04T03:47:38.306Z,100.00
2018-06-04T03:48:41.091Z,100.00
2018-06-04T03:49:43.858Z,100.00
2018-06-04T03:50:46.638Z,100.00
2018-06-04T03:51:49.748Z,100.00
2018-06-04T03:52:52.553Z,100.00
2018-06-04T03:53:55.383Z,100.00
2018-06-04T03:54:58.153Z,100.00
2018-06-04T03:56:00.952Z,100.00
2018-06-04T03:57:03.716Z,100.00
2018-06-04T03:58:06.777Z,100.00
2018-06-04T03:59:09.623Z,100.00
2018-06-04T04:00:12.625Z,100.00
2018-06-04T04:01:15.435Z,100.00
2018-06-04T04:02:18.231Z,100.00
2018-06-04T04:03:21.005Z,100.00
2018-06-04T04:04:24.107Z,100.00
2018-06-04T04:05:26.957Z,100.00
2018-06-04T04:06:29.751Z,100.00
2018-06-04T04:07:32.647Z,100.00
2018-06-04T04:08:35.463Z,100.00
2018-06-04T04:09:38.241Z,100.00
2018-06-04T04:10:41.054Z,100.00
2018-06-04T04:11:43.861Z,100.00
2018-06-04T04:12:46.670Z,100.00
2018-06-04T04:13:49.472Z,100.00
2018-06-04T04:14:52.252Z,100.00
2018-06-04T04:15:55.298Z,100.00
2018-06-04T04:16:58.095Z,100.00
2018-06-04T04:18:00.920Z,100.00
2018-06-04T04:19:03.719Z,100.00
2018-06-04T04:20:06.491Z,100.00
2018-06-04T04:21:09.286Z,100.00
2018-06-04T04:22:12.383Z,100.00
2018-06-04T04:23:15.279Z,100.00
2018-06-04T04:24:18.079Z,100.00
2018-06-04T04:25:20.849Z,100.00
2018-06-04T04:26:23.687Z,100.00
2018-06-04T04:27:26.515Z,100.00
2018-06-04T04:28:29.801Z,100.00
2018-06-04T04:29:32.578Z,100.00
2018-06-04T04:30:35.347Z,100.00
2018-06-04T04:31:38.155Z,100.00
2018-06-04T04:32:40.944Z,100.00
2018-06-04T04:33:43.715Z,100.00
2018-06-04T04:34:46.512Z,100.00
2018-06-04T04:35:49.294Z,100.00
2018-06-04T04:36:52.061Z,100.00
2018-06-04T04:37:54.866Z,100.00
2018-06-04T04:38:57.701Z,100.00
2018-06-04T04:40:01.083Z,100.00
2018-06-04T04:41:04.010Z,100.00
2018-06-04T04:42:06.878Z,100.00
2018-06-04T04:43:09.678Z,100.00
2018-06-04T04:44:12.455Z,100.00
2018-06-04T04:45:15.270Z,100.00
2018-06-04T04:46:18.395Z,100.00
2018-06-04T04:47:21.170Z,100.00
2018-06-04T04:48:23.950Z,100.00
2018-06-04T04:49:26.731Z,100.00
2018-06-04T04:50:29.563Z,100.00
2018-06-04T04:51:32.372Z,100.00
2018-06-04T04:52:35.478Z,100.00
2018-06-04T04:53:38.275Z,100.00
2018-06-04T04:54:41.074Z,100.00
2018-06-04T04:55:43.837Z,100.00
2018-06-04T04:56:46.608Z,100.00
2018-06-04T04:57:49.358Z,100.00
2018-06-04T04:58:52.790Z,100.00
2018-06-04T04:59:55.586Z,100.00
2018-06-04T05:00:58.411Z,100.00
2018-06-04T05:02:01.206Z,100.00
2018-06-04T05:03:04.015Z,100.00
2018-06-04T05:04:06.811Z,100.00
2018-06-04T05:05:09.944Z,100.00
2018-06-04T05:06:12.814Z,100.00
2018-06-04T05:07:15.597Z,100.00
2018-06-04T05:08:19.908Z,100.00
2018-06-04T05:09:22.737Z,100.00
2018-06-04T05:10:25.551Z,100.00
2018-06-04T05:11:28.613Z,100.00
2018-06-04T05:12:31.513Z,100.00
2018-06-04T05:13:34.287Z,100.00
2018-06-04T05:14:37.437Z,100.00
2018-06-04T05:15:40.227Z,100.00
2018-06-04T05:16:43.027Z,100.00
2018-06-04T05:17:46.156Z,100.00
2018-06-04T05:18:49.017Z,100.00
2018-06-04T05:19:51.900Z,100.00
2018-06-04T05:20:54.725Z,100.00
2018-06-04T05:21:57.525Z,100.00
2018-06-04T05:23:00.289Z,100.00
2018-06-04T05:24:03.508Z,100.00
2018-06-04T05:25:06.319Z,100.00
2018-06-04T05:26:09.154Z,100.00
2018-06-04T05:27:11.972Z,100.00
2018-06-04T05:28:14.885Z,100.00
2018-06-04T05:29:17.707Z,100.00
2018-06-04T05:30:20.480Z,100.00
2018-06-04T05:31:23.307Z,100.00
2018-06-04T05:32:26.134Z,100.00
2018-06-04T05:33:29.025Z,100.00
2018-06-04T05:34:31.835Z,100.00
2018-06-04T05:35:35.119Z,100.00
2018-06-04T05:36:37.904Z,100.00
2018-06-04T05:37:40.880Z,100.00
2018-06-04T05:38:43.894Z,100.00
2018-06-04T05:39:46.655Z,100.00
2018-06-04T05:40:49.457Z,100.00
2018-06-04T05:41:52.613Z,100.00
2018-06-04T05:42:55.437Z,100.00
2018-06-04T05:43:58.222Z,100.00
2018-06-04T05:45:00.994Z,100.00
2018-06-04T05:46:03.806Z,100.00
2018-06-04T05:47:06.576Z,100.00
2018-06-04T05:48:09.648Z,100.00
2018-06-04T05:49:12.445Z,100.00
2018-06-04T05:50:15.247Z,100.00
2018-06-04T05:51:18.092Z,100.00
2018-06-04T05:52:20.915Z,100.00
2018-06-04T05:53:23.720Z,100.00
2018-06-04T05:54:26.527Z,100.00
2018-06-04T05:55:29.315Z,100.00
2018-06-04T05:56:32.118Z,100.00
2018-06-04T05:57:34.923Z,100.00
2018-06-04T05:58:37.719Z,100.00
2018-06-04T05:59:40.909Z,100.00
2018-06-04T06:00:43.762Z,100.00
2018-06-04T06:01:46.792Z,100.00
2018-06-04T06:02:49.599Z,100.00
2018-06-04T06:03:52.429Z,100.00
2018-06-04T06:04:55.216Z,100.00
2018-06-04T06:05:58.290Z,100.00
2018-06-04T06:07:01.108Z,100.00
2018-06-04T06:08:03.943Z,100.00
2018-06-04T06:09:06.794Z,100.00
2018-06-04T06:10:09.614Z,100.00
2018-06-04T06:11:12.487Z,100.00
2018-06-04T06:12:15.692Z,100.00
2018-06-04T06:13:18.466Z,100.00
2018-06-04T06:14:21.289Z,100.00
2018-06-04T06:15:24.110Z,100.00
2018-06-04T06:16:26.916Z,100.00
2018-06-04T06:17:29.787Z,100.00
2018-06-04T06:18:32.893Z,100.00
2018-06-04T06:19:35.714Z,100.00
2018-06-04T06:20:40.034Z,100.00
2018-06-04T06:21:42.987Z,100.00
2018-06-04T06:22:45.788Z,100.00
2018-06-04T06:23:48.579Z,100.00
2018-06-04T06:24:51.661Z,100.00
2018-06-04T06:25:54.431Z,100.00
2018-06-04T06:26:57.245Z,100.00
2018-06-04T06:28:00.020Z,100.00
2018-06-04T06:29:02.808Z,100.00
2018-06-04T06:30:05.632Z,100.00
2018-06-04T06:31:08.694Z,100.00
2018-06-04T06:32:11.486Z,100.00
2018-06-04T06:33:14.350Z,100.00
2018-06-04T06:34:17.147Z,100.00
2018-06-04T06:35:19.934Z,100.00
2018-06-04T06:36:22.774Z,100.00
2018-06-04T06:37:25.851Z,100.00
2018-06-04T06:38:28.723Z,100.00
2018-06-04T06:39:31.550Z,100.00
2018-06-04T06:40:34.359Z,100.00
2018-06-04T06:41:37.133Z,100.00
2018-06-04T06:42:40.062Z,100.00
2018-06-04T06:43:43.282Z,100.00
2018-06-04T06:44:46.121Z,100.00
2018-06-04T06:45:48.912Z,100.00
2018-06-04T06:46:51.687Z,100.00
2018-06-04T06:47:54.492Z,100.00
2018-06-04T06:48:57.341Z,100.00
2018-06-04T06:50:00.493Z,100.00
2018-06-04T06:51:03.319Z,100.00
2018-06-04T06:52:06.137Z,100.00
2018-06-04T06:53:08.948Z,100.00
2018-06-04T06:54:11.712Z,100.00
2018-06-04T06:55:14.538Z,100.00
2018-06-04T06:56:17.623Z,100.00
2018-06-04T06:57:20.544Z,100.00
2018-06-04T06:58:23.337Z,100.00
2018-06-04T06:59:26.148Z,100.00
2018-06-04T07:00:29.297Z,100.00
2018-06-04T07:01:32.147Z,100.00
2018-06-04T07:02:35.297Z,100.00
2018-06-04T07:03:38.141Z,100.00
2018-06-04T07:04:40.960Z,100.00
2018-06-04T07:05:43.811Z,100.00
2018-06-04T07:06:46.629Z,100.00
2018-06-04T07:07:49.441Z,100.00
2018-06-04T07:08:52.562Z,100.00
2018-06-04T07:09:55.374Z,100.00
2018-06-04T07:10:58.552Z,100.00
2018-06-04T07:12:01.377Z,100.00
2018-06-04T07:13:04.282Z,100.00
2018-06-04T07:14:07.139Z,100.00
2018-06-04T07:15:10.968Z,100.00
2018-06-04T07:16:13.868Z,100.00
2018-06-04T07:17:17.069Z,100.00
2018-06-04T07:18:20.973Z,100.00
2018-06-04T07:19:23.788Z,100.00
2018-06-04T07:20:26.619Z,100.00
2018-06-04T07:21:29.736Z,100.00
2018-06-04T07:22:32.605Z,100.00
2018-06-04T07:23:35.424Z,100.00
2018-06-04T07:24:38.183Z,100.00
2018-06-04T07:25:41.005Z,100.00
2018-06-04T07:26:43.805Z,100.00
2018-06-04T07:27:46.885Z,100.00
2018-06-04T07:28:49.691Z,100.00
2018-06-04T07:29:52.473Z,100.00
2018-06-04T07:30:55.278Z,100.00
2018-06-04T07:31:58.049Z,100.00
2018-06-04T07:34:03.573Z,100.00
2018-06-04T07:35:06.345Z,100.00
2018-06-04T07:36:09.145Z,100.00
2018-06-04T07:37:11.944Z,100.00
2018-06-04T07:38:14.795Z,100.00
2018-06-04T07:39:18.044Z,100.00
2018-06-04T07:40:20.908Z,100.00
2018-06-04T07:41:23.797Z,100.00
2018-06-04T07:42:26.599Z,100.00
2018-06-04T07:43:29.414Z,100.00
2018-06-04T07:44:32.218Z,100.00
2018-06-04T07:45:35.378Z,100.00
2018-06-04T07:46:38.160Z,100.00
2018-06-04T07:47:41.012Z,100.00
2018-06-04T07:48:43.828Z,100.00
2018-06-04T07:49:46.674Z,100.00
2018-06-04T07:50:49.459Z,100.00
2018-06-04T07:51:52.311Z,100.00
2018-06-04T07:52:55.118Z,100.00
2018-06-04T07:53:57.935Z,100.00
2018-06-04T07:55:00.746Z,100.00
2018-06-04T07:56:03.591Z,100.00
2018-06-04T07:57:06.693Z,100.00
2018-06-04T07:58:09.509Z,100.00
2018-06-04T07:59:12.387Z,100.00
2018-06-04T08:00:15.222Z,100.00
2018-06-04T08:01:18.119Z,100.00
2018-06-04T08:02:20.965Z,100.00
2018-06-04T08:03:24.144Z,100.00
2018-06-04T08:04:27.547Z,100.00
2018-06-04T08:05:30.423Z,100.00
2018-06-04T08:06:33.296Z,100.00
2018-06-04T08:07:36.210Z,100.00
2018-06-04T08:08:39.028Z,100.00
2018-06-04T08:09:42.235Z,100.00
2018-06-04T08:10:45.073Z,100.00
2018-06-04T08:11:47.921Z,100.00
2018-06-04T08:12:50.908Z,100.00
2018-06-04T08:13:53.717Z,100.00
2018-06-04T08:14:56.569Z,100.00
2018-06-04T08:15:59.869Z,100.00
2018-06-04T08:17:03.371Z,100.00
2018-06-04T08:18:06.165Z,100.00
2018-06-04T08:19:08.986Z,100.00
2018-06-04T08:20:11.819Z,100.00
2018-06-04T08:21:14.794Z,100.00
2018-06-04T08:22:18.339Z,100.00
2018-06-04T08:23:21.182Z,100.00
2018-06-04T08:24:24.861Z,100.00
2018-06-04T08:25:27.667Z,100.00
2018-06-04T08:26:30.435Z,100.00
2018-06-04T08:27:33.693Z,100.00
2018-06-04T08:28:36.876Z,100.00
2018-06-04T08:29:39.678Z,100.00
2018-06-04T08:30:43.934Z,100.00
2018-06-04T08:31:46.969Z,100.00
2018-06-04T08:32:50.111Z,100.00
2018-06-04T08:33:52.952Z,100.00
2018-06-04T08:34:56.266Z,100.00
2018-06-04T08:35:59.067Z,100.00
2018-06-04T08:37:01.858Z,100.00
2018-06-04T08:38:04.692Z,100.00
2018-06-04T08:39:07.529Z,100.00
2018-06-04T08:40:10.374Z,100.00
2018-06-04T08:41:13.679Z,100.00
2018-06-04T08:42:16.495Z,100.00
2018-06-04T08:43:19.306Z,100.00
2018-06-04T08:44:22.127Z,100.00
2018-06-04T08:45:24.963Z,100.00
2018-06-04T08:46:27.759Z,100.00
2018-06-04T08:47:30.940Z,100.00
2018-06-04T08:48:33.764Z,100.00
2018-06-04T08:49:36.601Z,100.00
2018-06-04T08:50:39.423Z,100.00
2018-06-04T08:51:42.190Z,100.00
2018-06-04T08:52:45.015Z,100.00
2018-06-04T08:53:48.179Z,100.00
2018-06-04T08:54:50.960Z,100.00
2018-06-04T08:55:53.871Z,100.00
2018-06-04T08:56:56.670Z,100.00
2018-06-04T08:57:59.489Z,100.00
2018-06-04T08:59:02.489Z,100.00
2018-06-04T09:00:05.599Z,100.00
2018-06-04T09:01:08.535Z,100.00
2018-06-04T09:02:11.356Z,100.00
2018-06-04T09:03:14.172Z,100.00
2018-06-04T09:04:17.091Z,100.00
2018-06-04T09:05:19.945Z,100.00
2018-06-04T09:06:23.063Z,100.00
2018-06-04T09:07:25.868Z,100.00
2018-06-04T09:08:28.711Z,100.00
2018-06-04T09:09:31.508Z,100.00
2018-06-04T09:10:34.379Z,97.68
2018-06-04T09:11:37.177Z,96.20
2018-06-04T09:12:40.272Z,96.96
2018-06-04T09:13:43.501Z,96.17
2018-06-04T09:14:46.802Z,97.20
2018-06-04T09:15:50.698Z,97.40
2018-06-04T09:16:54.027Z,95.24
2018-06-04T09:17:56.971Z,93.53
2018-06-04T09:19:00.769Z,94.79
2018-06-04T09:20:04.775Z,93.67
2018-06-04T09:21:08.006Z,93.07
2018-06-04T09:22:11.241Z,92.58
2018-06-04T09:23:15.104Z,92.01
2018-06-04T09:24:17.960Z,92.09
2018-06-04T09:25:21.194Z,91.92
2018-06-04T09:26:24.007Z,91.59
2018-06-04T09:27:26.901Z,91.53
2018-06-04T09:28:30.093Z,88.65
2018-06-04T09:29:33.462Z,88.87
2018-06-04T09:30:36.822Z,89.60
2018-06-04T09:31:40.214Z,87.70
2018-06-04T09:32:43.056Z,89.09
2018-06-04T09:33:45.881Z,90.28
2018-06-04T09:34:48.715Z,89.58
2018-06-04T09:35:51.534Z,89.01
2018-06-04T09:36:54.393Z,89.62
2018-06-04T09:37:57.173Z,89.52
2018-06-04T09:39:00.148Z,89.00
2018-06-04T09:40:02.980Z,87.69
2018-06-04T09:41:05.799Z,86.88
2018-06-04T09:42:08.590Z,86.17
2018-06-04T09:43:11.848Z,84.25
2018-06-04T09:44:14.689Z,86.19
2018-06-04T09:45:17.605Z,85.96
2018-06-04T09:46:20.771Z,86.89
2018-06-04T09:47:23.579Z,86.30
2018-06-04T09:48:26.419Z,85.42
2018-06-04T09:49:30.444Z,83.73
2018-06-04T09:50:33.638Z,83.86
2018-06-04T09:51:36.803Z,82.12
2018-06-04T09:52:39.728Z,81.51
2018-06-04T09:53:42.901Z,81.49
2018-06-04T09:54:45.721Z,80.23
2018-06-04T09:55:48.962Z,80.12
2018-06-04T09:56:51.808Z,79.42
2018-06-04T09:57:54.819Z,78.54
2018-06-04T09:58:57.696Z,78.79
2018-06-04T10:00:00.777Z,77.71
2018-06-04T10:01:03.942Z,77.44
2018-06-04T10:02:07.223Z,76.41
2018-06-04T10:03:10.225Z,74.99
2018-06-04T10:04:13.042Z,73.08
2018-06-04T10:05:15.970Z,70.98
2018-06-04T10:06:18.853Z,69.32
2018-06-04T10:07:21.998Z,69.76
2018-06-04T10:08:25.475Z,69.35
2018-06-04T10:09:32.666Z,67.06
2018-06-04T10:10:35.536Z,68.98
2018-06-04T10:11:38.416Z,69.12
2018-06-04T10:12:41.211Z,68.46
2018-06-04T10:13:44.049Z,67.97
2018-06-04T10:14:47.175Z,67.53
2018-06-04T10:15:50.389Z,69.01
2018-06-04T10:16:54.031Z,67.44
2018-06-04T10:17:58.251Z,67.25
2018-06-04T10:19:01.801Z,67.42
2018-06-04T10:20:04.615Z,66.19
2018-06-04T10:21:07.936Z,64.85
2018-06-04T10:22:10.848Z,64.51
2018-06-04T10:23:13.706Z,64.30
2018-06-04T10:24:16.653Z,64.22
2018-06-04T10:25:19.494Z,63.73
2018-06-04T10:26:22.393Z,63.56
2018-06-04T10:27:26.110Z,61.99
2018-06-04T10:28:29.003Z,59.98
2018-06-04T10:29:31.871Z,60.19
2018-06-04T10:30:34.684Z,60.23
2018-06-04T10:31:37.555Z,59.55
2018-06-04T10:32:40.442Z,58.74
2018-06-04T10:33:43.814Z,57.58
2018-06-04T10:34:46.707Z,56.57
2018-06-04T10:35:49.581Z,56.28
2018-06-04T10:36:52.408Z,56.40
2018-06-04T10:37:55.225Z,55.95
2018-06-04T10:38:58.063Z,55.92
2018-06-04T10:40:01.323Z,56.25
2018-06-04T10:41:04.171Z,55.74
2018-06-04T10:42:07.013Z,55.74
2018-06-04T10:43:10.057Z,55.21
2018-06-04T10:44:13.051Z,54.17
2018-06-04T10:45:15.946Z,55.25
2018-06-04T10:46:19.206Z,55.24
2018-06-04T10:47:22.000Z,55.20
2018-06-04T10:48:24.790Z,55.83
2018-06-04T10:49:27.573Z,56.49
2018-06-04T10:50:30.405Z,54.94
2018-06-04T10:51:33.211Z,54.88
2018-06-04T10:52:36.466Z,53.46
2018-06-04T10:53:39.289Z,54.14
2018-06-04T10:54:42.140Z,54.00
2018-06-04T10:55:44.943Z,54.93
2018-06-04T10:56:47.736Z,54.76
2018-06-04T10:57:50.571Z,54.37
2018-06-04T10:58:53.935Z,54.59
2018-06-04T10:59:56.788Z,54.83
2018-06-04T11:00:59.608Z,55.45
2018-06-04T11:02:02.458Z,55.71
2018-06-04T11:03:05.324Z,56.90
2018-06-04T11:04:08.171Z,55.79
2018-06-04T11:05:11.389Z,55.98
2018-06-04T11:06:14.229Z,56.55
2018-06-04T11:07:17.085Z,56.91
2018-06-04T11:08:19.914Z,57.49
2018-06-04T11:09:22.910Z,58.58
2018-06-04T11:10:25.778Z,58.12
2018-06-04T11:11:28.926Z,57.90
2018-06-04T11:12:31.915Z,57.75
2018-06-04T11:13:34.732Z,57.58
2018-06-04T11:14:37.531Z,57.31
2018-06-04T11:15:40.604Z,57.68
2018-06-04T11:16:43.423Z,59.05
2018-06-04T11:17:46.672Z,56.92
2018-06-04T11:18:49.592Z,57.65
2018-06-04T11:19:52.435Z,57.54
2018-06-04T11:20:55.430Z,56.80
2018-06-04T11:21:58.273Z,55.72
2018-06-04T11:23:01.081Z,54.04
2018-06-04T11:24:03.989Z,53.20
2018-06-04T11:25:06.972Z,52.78
2018-06-04T11:26:09.822Z,52.11
2018-06-04T11:27:12.645Z,51.05
2018-06-04T11:28:15.476Z,51.49
2018-06-04T11:29:18.304Z,49.37
2018-06-04T11:30:21.156Z,49.44
2018-06-04T11:31:24.374Z,49.24
2018-06-04T11:32:27.242Z,49.73
2018-06-04T11:33:30.079Z,50.30
2018-06-04T11:34:32.906Z,51.67
2018-06-04T11:35:37.646Z,52.09
2018-06-04T11:36:40.891Z,51.12
2018-06-04T11:37:43.760Z,50.82
2018-06-04T11:38:46.562Z,51.69
2018-06-04T11:39:49.360Z,52.83
2018-06-04T11:40:52.393Z,53.56
2018-06-04T11:41:55.591Z,52.96
2018-06-04T11:42:58.379Z,52.31
2018-06-04T11:44:01.215Z,50.86
2018-06-04T11:45:04.086Z,51.27
2018-06-04T11:46:07.692Z,51.13
2018-06-04T11:47:10.533Z,52.08
2018-06-04T11:48:14.699Z,51.47
2018-06-04T11:49:17.549Z,52.70
2018-06-04T11:50:20.428Z,52.79
2018-06-04T11:51:23.215Z,54.57
2018-06-04T11:52:26.678Z,54.21
2018-06-04T11:53:31.139Z,52.01
2018-06-04T11:54:35.119Z,52.64
2018-06-04T11:55:38.608Z,54.41
2018-06-04T11:56:42.622Z,53.59
2018-06-04T11:57:45.432Z,51.78
2018-06-04T11:58:49.413Z,50.69
2018-06-04T11:59:57.310Z,50.94
2018-06-04T12:01:01.542Z,50.33
2018-06-04T12:02:04.438Z,50.56
2018-06-04T12:03:07.274Z,51.20
2018-06-04T12:04:11.336Z,50.75
2018-06-04T12:05:14.179Z,48.62
2018-06-04T12:06:17.303Z,48.53
2018-06-04T12:07:20.739Z,48.80
2018-06-04T12:08:23.566Z,48.11
2018-06-04T12:09:27.249Z,48.46
2018-06-04T12:10:31.380Z,48.68
2018-06-04T12:11:35.313Z,47.65
2018-06-04T12:12:39.225Z,49.01
2018-06-04T12:13:42.470Z,48.29
2018-06-04T12:14:45.339Z,46.94
2018-06-04T12:15:48.238Z,46.47
2018-06-04T12:16:51.044Z,46.74
2018-06-04T12:17:54.649Z,46.65
2018-06-04T12:18:58.248Z,45.78
2018-06-04T12:20:01.104Z,46.89
2018-06-04T12:21:04.067Z,47.68
2018-06-04T12:22:06.873Z,47.37
2018-06-04T12:23:09.701Z,47.68
2018-06-04T12:24:12.582Z,48.23
2018-06-04T12:25:15.789Z,49.46
2018-06-04T12:26:19.565Z,50.74
2018-06-04T12:27:22.373Z,51.47
2018-06-04T12:28:25.169Z,51.52
2018-06-04T12:29:27.991Z,51.00
2018-06-04T12:30:30.815Z,50.62
2018-06-04T12:31:34.150Z,49.56
2018-06-04T12:32:40.018Z,49.70
2018-06-04T12:33:43.514Z,50.02
2018-06-04T12:34:50.636Z,50.38
2018-06-04T12:35:54.200Z,51.06
2018-06-04T12:37:00.230Z,51.84
2018-06-04T12:38:06.610Z,52.63
2018-06-04T12:39:12.610Z,53.25
2018-06-04T12:40:17.293Z,53.45
2018-06-04T12:41:21.737Z,53.89
2018-06-04T12:42:26.438Z,54.78
2018-06-04T12:43:31.234Z,54.48
2018-06-04T12:44:37.404Z,54.41
2018-06-04T12:45:40.739Z,54.75
2018-06-04T12:46:43.776Z,55.31
2018-06-04T12:47:46.581Z,56.63
2018-06-04T12:48:49.463Z,57.13
2018-06-04T12:49:53.752Z,57.26
2018-06-04T12:50:57.073Z,58.05
2018-06-04T12:52:00.109Z,57.91
2018-06-04T12:53:02.897Z,56.89
2018-06-04T12:54:05.881Z,57.18
2018-06-04T12:55:10.271Z,57.18
2018-06-04T12:56:13.295Z,58.37
2018-06-04T12:57:16.479Z,58.21
2018-06-04T12:58:19.231Z,58.32
2018-06-04T12:59:22.277Z,58.08
2018-06-04T13:00:26.174Z,59.56
2018-06-04T13:01:29.662Z,59.04
2018-06-04T13:02:32.486Z,58.72
2018-06-04T13:03:35.537Z,58.17
2018-06-04T13:04:39.521Z,57.62
2018-06-04T13:05:43.867Z,56.31
2018-06-04T13:06:46.794Z,54.99
2018-06-04T13:07:50.826Z,54.21
2018-06-04T13:08:53.654Z,54.21
2018-06-04T13:09:57.909Z,53.85
2018-06-04T13:11:01.459Z,55.05
2018-06-04T13:12:08.672Z,56.48
2018-06-04T13:13:11.896Z,57.47
2018-06-04T13:14:14.795Z,58.48